createdAt,value
2023-05-11T00:01:13.482Z,15.14
2023-05-11T00:03:40.595Z,15.15
2023-05-11T00:06:07.748Z,15.15
2023-05-11T00:08:34.716Z,15.15
2023-05-11T00:11:01.743Z,15.13
2023-05-11T00:13:29.058Z,15.11
2023-05-11T00:15:56.356Z,15.10
2023-05-11T00:18:23.412Z,15.07
2023-05-11T00:20:50.477Z,15.03
2023-05-11T00:23:17.475Z,15.00
2023-05-11T00:25:44.424Z,14.97
2023-05-11T00:28:11.516Z,14.95
2023-05-11T00:30:40.532Z,14.95
2023-05-11T00:33:07.579Z,14.95
2023-05-11T00:35:34.667Z,14.94
2023-05-11T00:38:01.680Z,14.92
2023-05-11T00:40:28.892Z,14.90
2023-05-11T00:42:55.953Z,14.89
2023-05-11T00:45:22.893Z,14.86
2023-05-11T00:47:50.233Z,14.84
2023-05-11T00:50:19.078Z,14.81
2023-05-11T00:52:46.322Z,14.77
2023-05-11T00:55:13.898Z,14.76
2023-05-11T00:57:40.928Z,14.76
2023-05-11T01:00:08.530Z,14.78
2023-05-11T01:02:35.709Z,14.78
2023-05-11T01:05:02.833Z,14.80
2023-05-11T01:07:49.901Z,14.80
2023-05-11T01:10:26.003Z,14.80
2023-05-11T01:13:25.398Z,14.80
2023-05-11T01:15:54.069Z,14.80
2023-05-11T01:18:29.252Z,14.79
2023-05-11T01:21:01.803Z,14.77
2023-05-11T01:24:06.308Z,14.76
2023-05-11T01:26:38.020Z,14.78
2023-05-11T01:29:32.088Z,14.79
2023-05-11T01:31:59.210Z,14.81
2023-05-11T01:34:30.758Z,14.85
2023-05-11T01:36:59.206Z,14.90
2023-05-11T01:39:30.738Z,14.92
2023-05-11T01:41:57.686Z,14.97
2023-05-11T01:44:25.904Z,14.95
2023-05-11T01:46:52.853Z,14.98
2023-05-11T01:49:19.809Z,14.99
2023-05-11T01:51:49.622Z,14.99
2023-05-11T01:54:17.576Z,15.00
2023-05-11T01:56:44.562Z,14.99
2023-05-11T01:59:11.994Z,14.97
2023-05-11T02:01:39.006Z,14.94
2023-05-11T02:04:06.119Z,14.92
2023-05-11T02:06:33.058Z,14.88
2023-05-11T02:09:00.054Z,14.85
2023-05-11T02:11:27.061Z,14.81
2023-05-11T02:13:56.304Z,14.78
2023-05-11T02:16:23.382Z,14.73
2023-05-11T02:18:50.963Z,14.66
2023-05-11T02:21:18.053Z,14.60
2023-05-11T02:23:46.671Z,14.51
2023-05-11T02:26:13.641Z,14.42
2023-05-11T02:28:40.845Z,14.32
2023-05-11T02:31:16.615Z,14.21
2023-05-11T02:33:45.146Z,14.11
2023-05-11T02:36:14.784Z,14.03
2023-05-11T02:38:41.748Z,13.96
2023-05-11T02:41:11.958Z,13.92
2023-05-11T02:43:41.016Z,13.88
2023-05-11T02:46:17.698Z,13.87
2023-05-11T02:48:47.268Z,13.87
2023-05-11T02:51:14.539Z,13.86
2023-05-11T02:53:45.831Z,13.86
2023-05-11T02:56:12.993Z,13.85
2023-05-11T02:58:39.966Z,13.87
2023-05-11T03:01:17.425Z,13.90
2023-05-11T03:03:44.808Z,13.92
2023-05-11T03:06:12.072Z,13.97
2023-05-11T03:08:39.419Z,14.01
2023-05-11T03:11:06.432Z,14.06
2023-05-11T03:13:33.393Z,14.11
2023-05-11T03:16:02.591Z,14.13
2023-05-11T03:18:30.848Z,14.17
2023-05-11T03:20:58.181Z,14.19
2023-05-11T03:23:25.162Z,14.20
2023-05-11T03:25:52.155Z,14.20
2023-05-11T03:28:19.130Z,14.24
2023-05-11T03:30:55.750Z,14.29
2023-05-11T03:33:22.935Z,14.37
2023-05-11T03:35:51.166Z,14.49
2023-05-11T03:38:19.555Z,14.68
2023-05-11T03:40:46.604Z,14.90
2023-05-11T03:43:16.243Z,15.11
2023-05-11T03:45:43.408Z,15.28
2023-05-11T03:48:11.026Z,15.38
2023-05-11T03:50:38.373Z,15.47
2023-05-11T03:53:05.686Z,15.53
2023-05-11T03:55:32.914Z,15.56
2023-05-11T03:58:00.787Z,15.55
2023-05-11T04:00:28.776Z,15.53
2023-05-11T04:02:55.903Z,15.51
2023-05-11T04:05:22.939Z,15.46
2023-05-11T04:07:50.219Z,15.45
2023-05-11T04:10:18.882Z,15.43
2023-05-11T04:12:45.990Z,15.43
2023-05-11T04:15:12.960Z,15.43
2023-05-11T04:17:39.965Z,15.42
2023-05-11T04:20:07.676Z,15.41
2023-05-11T04:22:34.658Z,15.40
2023-05-11T04:25:03.053Z,15.41
2023-05-11T04:27:33.281Z,15.44
2023-05-11T04:30:00.768Z,15.43
2023-05-11T04:32:30.176Z,15.42
2023-05-11T04:34:57.456Z,15.41
2023-05-11T04:37:26.072Z,15.42
2023-05-11T04:39:53.605Z,15.45
2023-05-11T04:42:21.148Z,15.48
2023-05-11T04:44:54.164Z,15.50
2023-05-11T04:47:21.461Z,15.53
2023-05-11T04:49:48.891Z,15.55
2023-05-11T04:52:16.135Z,15.57
2023-05-11T04:54:45.732Z,15.60
2023-05-11T04:57:12.693Z,15.63
2023-05-11T04:59:39.840Z,15.67
2023-05-11T05:02:06.954Z,15.70
2023-05-11T05:04:36.157Z,15.70
2023-05-11T05:07:04.397Z,15.72
2023-05-11T05:09:31.434Z,15.76
2023-05-11T05:11:58.407Z,15.81
2023-05-11T05:14:25.464Z,15.83
2023-05-11T05:16:54.607Z,15.87
2023-05-11T05:19:21.782Z,15.92
2023-05-11T05:21:49.972Z,16.00
2023-05-11T05:24:16.935Z,16.07
2023-05-11T05:26:43.892Z,16.27
2023-05-11T05:29:12.128Z,16.65
2023-05-11T05:31:39.386Z,17.13
2023-05-11T05:34:06.771Z,17.67
2023-05-11T05:36:34.727Z,18.29
2023-05-11T05:39:03.875Z,18.92
2023-05-11T05:41:31.550Z,19.52
2023-05-11T05:43:58.513Z,20.07
2023-05-11T05:46:25.614Z,20.54
2023-05-11T05:48:52.634Z,20.90
2023-05-11T05:51:19.614Z,21.30
2023-05-11T05:53:47.179Z,21.77
2023-05-11T05:56:14.669Z,22.21
2023-05-11T05:58:41.787Z,22.60
2023-05-11T06:01:08.850Z,22.87
2023-05-11T06:03:36.216Z,23.12
2023-05-11T06:06:03.726Z,23.28
2023-05-11T06:08:30.820Z,23.25
2023-05-11T06:15:01.062Z,22.23
2023-05-11T06:17:29.904Z,22.74
2023-05-11T06:19:57.243Z,22.73
2023-05-11T06:22:26.467Z,22.56
2023-05-11T06:24:53.805Z,22.33
2023-05-11T06:27:21.557Z,22.17
2023-05-11T06:29:49.271Z,22.06
2023-05-11T06:32:16.924Z,21.97
2023-05-11T06:34:44.339Z,21.83
2023-05-11T06:41:32.534Z,21.28
2023-05-11T06:44:00.305Z,21.83
2023-05-11T06:46:29.645Z,21.91
2023-05-11T06:48:56.860Z,21.93
2023-05-11T06:51:24.130Z,21.98
2023-05-11T06:53:51.561Z,22.04
2023-05-11T06:56:18.919Z,22.10
2023-05-11T06:58:45.964Z,22.21
2023-05-11T07:01:13.325Z,22.35
2023-05-11T07:03:40.565Z,22.58
2023-05-11T07:06:07.719Z,22.95
2023-05-11T07:08:35.101Z,23.31
2023-05-11T07:11:02.233Z,23.68
2023-05-11T07:13:29.677Z,23.93
2023-05-11T07:15:57.764Z,24.21
2023-05-11T07:18:25.131Z,24.53
2023-05-11T07:20:52.255Z,24.84
2023-05-11T07:23:19.399Z,25.13
2023-05-11T07:25:46.448Z,25.40
2023-05-11T07:28:13.543Z,25.59
2023-05-11T07:30:40.847Z,25.71
2023-05-11T07:33:08.052Z,25.76
2023-05-11T07:35:35.238Z,25.71
2023-05-11T07:38:03.344Z,25.54
2023-05-11T07:40:30.567Z,25.29
2023-05-11T07:42:57.720Z,25.05
2023-05-11T07:45:24.767Z,24.82
2023-05-11T07:47:52.353Z,24.56
2023-05-11T07:50:19.448Z,24.32
2023-05-11T07:52:47.051Z,24.04
2023-05-11T07:55:14.699Z,23.78
2023-05-11T07:57:41.850Z,23.58
2023-05-11T08:00:11.015Z,23.40
2023-05-11T08:02:41.796Z,23.22
2023-05-11T08:05:09.133Z,23.02
2023-05-11T08:07:38.345Z,22.86
2023-05-11T08:10:07.733Z,22.70
2023-05-11T08:12:36.516Z,22.54
2023-05-11T08:15:04.967Z,22.36
2023-05-11T08:17:32.112Z,22.21
2023-05-11T08:19:59.515Z,22.08
2023-05-11T08:22:26.449Z,21.93
2023-05-11T08:24:53.496Z,21.81
2023-05-11T08:27:20.778Z,21.72
2023-05-11T08:29:47.867Z,21.62
2023-05-11T08:32:14.889Z,21.51
2023-05-11T08:34:42.348Z,21.40
2023-05-11T08:37:09.757Z,21.32
2023-05-11T08:39:46.534Z,21.23
2023-05-11T08:42:18.084Z,21.13
2023-05-11T08:44:45.548Z,21.02
2023-05-11T08:49:42.704Z,20.91
2023-05-11T08:52:09.749Z,20.88
2023-05-11T08:54:36.806Z,20.85
2023-05-11T08:57:04.050Z,20.84
2023-05-11T08:59:33.551Z,20.83
2023-05-11T09:02:00.698Z,20.83
2023-05-11T09:04:27.644Z,20.84
2023-05-11T09:06:55.606Z,20.85
2023-05-11T09:09:22.686Z,20.85
2023-05-11T09:11:50.120Z,20.85
2023-05-11T09:14:17.481Z,20.84
2023-05-11T09:16:45.037Z,20.85
2023-05-11T09:19:14.533Z,20.86
2023-05-11T09:21:41.500Z,20.86
2023-05-11T09:24:11.294Z,20.84
2023-05-11T09:26:38.450Z,20.82
2023-05-11T09:29:05.516Z,20.77
2023-05-11T09:31:42.314Z,20.74
2023-05-11T09:34:12.496Z,20.71
2023-05-11T09:36:43.735Z,20.67
2023-05-11T09:39:15.493Z,20.63
2023-05-11T09:41:42.857Z,20.61
2023-05-11T09:44:11.633Z,20.61
2023-05-11T09:46:43.453Z,20.60
2023-05-11T09:49:11.360Z,20.60
2023-05-11T09:51:40.249Z,20.61
2023-05-11T09:54:18.533Z,20.65
2023-05-11T09:56:57.949Z,20.67
2023-05-11T09:59:51.462Z,20.66
2023-05-11T10:02:19.051Z,20.63
2023-05-11T10:04:47.298Z,20.59
2023-05-11T10:07:30.557Z,20.54
2023-05-11T10:10:07.828Z,20.54
2023-05-11T10:12:37.754Z,20.54
2023-05-11T10:15:09.087Z,20.56
2023-05-11T10:17:36.444Z,20.59
2023-05-11T10:20:04.749Z,20.53
2023-05-11T10:22:32.415Z,20.52
2023-05-11T10:24:59.624Z,20.54
2023-05-11T10:27:27.503Z,20.54
2023-05-11T10:29:54.530Z,20.54
2023-05-11T10:32:22.264Z,20.56
2023-05-11T10:34:52.309Z,20.59
2023-05-11T10:37:20.685Z,20.60
2023-05-11T10:39:50.298Z,20.61
2023-05-11T10:42:30.441Z,20.63
2023-05-11T10:45:12.853Z,20.63
2023-05-11T10:48:12.272Z,20.63
2023-05-11T10:50:59.171Z,20.64
2023-05-11T10:53:45.158Z,20.62
2023-05-11T10:56:26.139Z,20.64
2023-05-11T10:59:11.720Z,20.66
2023-05-11T11:01:40.024Z,20.68
2023-05-11T11:04:08.467Z,20.70
2023-05-11T11:06:40.550Z,20.71
2023-05-11T11:09:10.860Z,20.73
2023-05-11T11:11:39.447Z,20.74
2023-05-11T11:14:08.892Z,20.72
2023-05-11T11:16:36.851Z,20.74
2023-05-11T11:19:30.283Z,20.76
2023-05-11T11:21:59.453Z,20.75
2023-05-11T11:24:38.542Z,20.76
2023-05-11T11:27:06.206Z,20.76
2023-05-11T11:29:37.149Z,20.75
2023-05-11T11:32:21.294Z,20.75
2023-05-11T11:34:48.813Z,20.78
2023-05-11T11:37:16.898Z,20.78
2023-05-11T11:39:44.446Z,20.78
2023-05-11T11:42:12.826Z,20.81
2023-05-11T11:44:40.379Z,20.85
2023-05-11T11:47:23.108Z,20.92
2023-05-11T11:49:53.834Z,21.00
2023-05-11T11:52:26.712Z,21.12
2023-05-11T11:54:56.216Z,21.18
2023-05-11T11:57:29.819Z,21.24
2023-05-11T11:59:57.008Z,21.32
2023-05-11T12:02:23.990Z,21.35
2023-05-11T12:05:01.770Z,21.41
2023-05-11T12:07:32.675Z,21.45
2023-05-11T12:10:03.605Z,21.48
2023-05-11T12:12:31.550Z,21.51
2023-05-11T12:14:59.521Z,21.54
2023-05-11T12:17:28.944Z,21.59
2023-05-11T12:20:11.552Z,21.63
2023-05-11T12:22:38.887Z,21.67
2023-05-11T12:25:06.764Z,21.71
2023-05-11T12:27:34.518Z,21.72
2023-05-11T12:30:01.777Z,21.68
2023-05-11T12:32:30.523Z,21.64
2023-05-11T12:35:01.784Z,21.57
2023-05-11T12:37:31.943Z,21.49
2023-05-11T12:39:59.071Z,21.43
2023-05-11T12:42:26.221Z,21.38
2023-05-11T12:44:54.093Z,21.35
2023-05-11T12:47:21.349Z,21.32
2023-05-11T12:49:48.382Z,21.28
2023-05-11T12:52:15.434Z,21.25
2023-05-11T12:54:51.088Z,21.21
2023-05-11T12:57:29.091Z,21.11
2023-05-11T13:00:12.584Z,21.06
2023-05-11T13:02:55.824Z,21.03
2023-05-11T13:05:24.221Z,21.01
2023-05-11T13:08:02.512Z,20.99
2023-05-11T13:10:30.093Z,20.99
2023-05-11T13:12:57.157Z,21.02
2023-05-11T13:15:24.609Z,21.01
2023-05-11T13:17:58.614Z,21.00
2023-05-11T13:20:30.676Z,20.97
2023-05-11T13:23:07.693Z,20.95
2023-05-11T13:25:54.947Z,20.93
2023-05-11T13:28:23.864Z,20.91
2023-05-11T13:30:51.746Z,20.88
2023-05-11T13:33:19.201Z,20.87
2023-05-11T13:35:46.243Z,20.85
2023-05-11T13:38:14.108Z,20.84
2023-05-11T13:40:41.044Z,20.83
2023-05-11T13:43:08.265Z,20.82
2023-05-11T13:45:36.163Z,20.83
2023-05-11T13:48:03.844Z,20.86
2023-05-11T13:50:31.984Z,20.89
2023-05-11T13:52:58.841Z,20.90
2023-05-11T13:55:26.280Z,20.88
2023-05-11T13:57:53.095Z,20.86
2023-05-11T14:00:20.407Z,20.84
2023-05-11T14:02:49.996Z,20.85
2023-05-11T14:05:17.157Z,20.87
2023-05-11T14:07:48.394Z,20.88
2023-05-11T14:10:16.703Z,20.87
2023-05-11T14:12:43.839Z,20.84
2023-05-11T14:15:11.044Z,20.81
2023-05-11T14:17:38.379Z,20.77
2023-05-11T14:20:06.148Z,20.73
2023-05-11T14:22:33.346Z,20.70
2023-05-11T14:25:01.453Z,20.65
2023-05-11T14:27:28.463Z,20.61
2023-05-11T14:29:55.352Z,20.57
2023-05-11T14:32:22.453Z,20.55
2023-05-11T14:34:49.419Z,20.53
2023-05-11T14:37:16.661Z,20.53
2023-05-11T14:39:44.516Z,20.53
2023-05-11T14:42:11.562Z,20.54
2023-05-11T14:44:38.655Z,20.55
2023-05-11T14:47:05.975Z,20.55
2023-05-11T14:49:34.234Z,20.57
2023-05-11T14:52:01.537Z,20.58
2023-05-11T14:54:29.352Z,20.59
2023-05-11T14:56:58.221Z,20.60
2023-05-11T14:59:26.635Z,20.60
2023-05-11T15:01:53.831Z,20.61
2023-05-11T15:04:21.657Z,20.60
2023-05-11T15:06:49.400Z,20.59
2023-05-11T15:09:16.282Z,20.58
2023-05-11T15:11:43.299Z,20.56
2023-05-11T15:14:10.444Z,20.55
2023-05-11T15:16:37.569Z,20.53
2023-05-11T15:19:05.521Z,20.50
2023-05-11T15:21:32.474Z,20.47
2023-05-11T15:23:59.443Z,20.43
2023-05-11T15:26:26.491Z,20.35
2023-05-11T15:28:53.950Z,20.31
2023-05-11T15:31:22.153Z,20.28
2023-05-11T15:33:49.216Z,20.25
2023-05-11T15:36:16.421Z,20.21
2023-05-11T15:38:43.606Z,20.17
2023-05-11T15:41:10.567Z,20.13
2023-05-11T15:43:37.788Z,20.15
2023-05-11T15:46:05.254Z,20.17
2023-05-11T15:48:33.365Z,20.08
2023-05-11T15:51:00.998Z,20.00
2023-05-11T15:53:28.539Z,19.96
2023-05-11T15:55:56.480Z,19.92
2023-05-11T15:58:23.541Z,19.90
2023-05-11T16:00:50.751Z,19.87
2023-05-11T16:03:19.092Z,19.83
2023-05-11T16:05:46.153Z,19.76
2023-05-11T16:08:13.487Z,19.71
2023-05-11T16:10:40.608Z,19.67
2023-05-11T16:13:08.471Z,19.62
2023-05-11T16:15:35.820Z,19.58
2023-05-11T16:18:04.830Z,19.54
2023-05-11T16:20:32.579Z,19.50
2023-05-11T16:22:59.761Z,19.50
2023-05-11T16:25:27.085Z,19.50
2023-05-11T16:27:54.131Z,19.47
2023-05-11T16:30:25.449Z,19.42
2023-05-11T16:32:53.689Z,19.38
2023-05-11T16:35:21.225Z,19.35
2023-05-11T16:37:48.768Z,19.30
2023-05-11T16:40:20.502Z,19.25
2023-05-11T16:42:48.411Z,19.20
2023-05-11T16:45:16.057Z,19.15
2023-05-11T16:47:44.885Z,19.11
2023-05-11T16:50:15.587Z,19.06
2023-05-11T16:52:42.636Z,19.00
2023-05-11T16:55:09.989Z,18.96
2023-05-11T16:57:37.240Z,18.90
2023-05-11T17:00:06.020Z,18.85
2023-05-11T17:02:33.845Z,18.79
2023-05-11T17:05:01.138Z,18.73
2023-05-11T17:07:28.185Z,18.67
2023-05-11T17:09:56.604Z,18.61
2023-05-11T17:12:24.098Z,18.56
2023-05-11T17:14:51.269Z,18.51
2023-05-11T17:17:18.232Z,18.46
2023-05-11T17:19:45.185Z,18.41
2023-05-11T17:22:12.317Z,18.36
2023-05-11T17:24:39.279Z,18.32
2023-05-11T17:27:06.306Z,18.28
2023-05-11T17:29:34.378Z,18.24
2023-05-11T17:32:01.721Z,18.20
2023-05-11T17:34:29.627Z,18.15
2023-05-11T17:36:56.857Z,18.11
2023-05-11T17:39:23.910Z,18.06
2023-05-11T17:41:50.940Z,18.02
2023-05-11T17:44:18.122Z,17.97
2023-05-11T17:46:45.138Z,17.91
2023-05-11T17:49:12.213Z,17.86
2023-05-11T17:51:39.261Z,17.81
2023-05-11T17:54:06.482Z,17.76
2023-05-11T17:56:33.530Z,17.72
2023-05-11T17:59:00.576Z,17.68
2023-05-11T18:01:27.734Z,17.63
2023-05-11T18:03:57.022Z,17.59
2023-05-11T18:06:24.380Z,17.54
2023-05-11T18:08:52.249Z,17.49
2023-05-11T18:11:19.287Z,17.45
2023-05-11T18:13:46.852Z,17.43
2023-05-11T18:16:14.180Z,17.39
2023-05-11T18:18:42.296Z,17.36
2023-05-11T18:21:10.288Z,17.32
2023-05-11T18:23:37.506Z,17.29
2023-05-11T18:26:05.575Z,17.25
2023-05-11T18:28:32.722Z,17.22
2023-05-11T18:31:00.010Z,17.19
2023-05-11T18:33:27.442Z,17.15
2023-05-11T18:35:54.572Z,17.12
2023-05-11T18:38:21.624Z,17.09
2023-05-11T18:40:48.574Z,17.06
2023-05-11T18:43:16.549Z,17.04
2023-05-11T18:45:45.439Z,17.03
2023-05-11T18:48:12.636Z,17.02
2023-05-11T18:50:40.136Z,17.02
2023-05-11T18:53:07.895Z,17.01
2023-05-11T18:55:44.762Z,17.01
2023-05-11T18:58:20.153Z,16.99
2023-05-11T19:00:48.114Z,16.97
2023-05-11T19:03:15.709Z,16.94
2023-05-11T19:05:43.611Z,16.91
2023-05-11T19:08:10.763Z,16.88
2023-05-11T19:10:40.080Z,16.84
2023-05-11T19:13:07.522Z,16.81
2023-05-11T19:15:34.765Z,16.77
2023-05-11T19:18:02.416Z,16.74
2023-05-11T19:20:29.590Z,16.68
2023-05-11T19:22:56.578Z,16.68
2023-05-11T19:25:23.474Z,16.66
2023-05-11T19:27:51.739Z,16.65
2023-05-11T19:30:19.154Z,16.64
2023-05-11T19:32:48.422Z,16.63
2023-05-11T19:35:15.957Z,16.61
2023-05-11T19:37:43.102Z,16.59
2023-05-11T19:40:43.991Z,16.57
2023-05-11T19:42:58.392Z,16.53
2023-05-11T19:45:25.756Z,16.51
2023-05-11T19:47:53.055Z,16.48
2023-05-11T19:50:23.549Z,16.44
2023-05-11T19:52:52.109Z,16.42
2023-05-11T19:55:19.050Z,16.40
2023-05-11T19:57:46.406Z,16.38
2023-05-11T20:00:13.662Z,16.37
2023-05-11T20:02:41.519Z,16.35
2023-05-11T20:05:09.291Z,16.33
2023-05-11T20:07:38.485Z,16.31
2023-05-11T20:10:06.557Z,16.28
2023-05-11T20:12:33.706Z,16.25
2023-05-11T20:15:00.872Z,16.23
2023-05-11T20:17:28.261Z,16.21
2023-05-11T20:19:55.978Z,16.19
2023-05-11T20:22:23.022Z,16.18
2023-05-11T20:24:50.282Z,16.17
2023-05-11T20:27:17.435Z,16.17
2023-05-11T20:29:44.572Z,16.17
2023-05-11T20:32:12.134Z,16.16
2023-05-11T20:34:39.263Z,16.15
2023-05-11T20:37:07.043Z,16.14
2023-05-11T20:39:34.110Z,16.13
2023-05-11T20:42:03.695Z,16.10
2023-05-11T20:44:30.747Z,16.10
2023-05-11T20:46:57.808Z,16.08
2023-05-11T20:49:37.674Z,16.05
2023-05-11T20:52:07.142Z,16.01
2023-05-11T20:54:35.215Z,15.97
2023-05-11T20:57:03.413Z,15.95
2023-05-11T21:02:03.253Z,15.99
2023-05-11T21:04:31.095Z,15.98
2023-05-11T21:06:58.166Z,15.95
2023-05-11T21:09:25.306Z,15.93
2023-05-11T21:11:52.434Z,15.91
2023-05-11T21:14:19.785Z,15.90
2023-05-11T21:16:47.391Z,15.89
2023-05-11T21:19:18.075Z,15.87
2023-05-11T21:21:48.011Z,15.85
2023-05-11T21:24:15.856Z,15.82
2023-05-11T21:26:43.003Z,15.77
2023-05-11T21:29:12.610Z,15.73
2023-05-11T21:31:39.564Z,15.71
2023-05-11T21:34:06.502Z,15.70
2023-05-11T21:36:33.547Z,15.70
2023-05-11T21:39:00.593Z,15.70
2023-05-11T21:41:27.652Z,15.70
2023-05-11T21:43:54.589Z,15.70
2023-05-11T21:46:21.788Z,15.71
2023-05-11T21:48:48.892Z,15.71
2023-05-11T21:51:16.137Z,15.71
2023-05-11T21:53:43.288Z,15.69
2023-05-11T21:56:10.333Z,15.69
2023-05-11T21:58:37.380Z,15.67
2023-05-11T22:01:04.545Z,15.66
2023-05-11T22:03:32.133Z,15.65
2023-05-11T22:05:59.151Z,15.65
2023-05-11T22:08:26.595Z,15.64
2023-05-11T22:10:53.645Z,15.63
2023-05-11T22:13:21.202Z,15.62
2023-05-11T22:15:48.247Z,15.59
2023-05-11T22:18:15.412Z,15.57
2023-05-11T22:20:42.549Z,15.54
2023-05-11T22:23:09.613Z,15.51
2023-05-11T22:25:36.950Z,15.48
2023-05-11T22:28:04.615Z,15.45
2023-05-11T22:30:31.862Z,15.43
2023-05-11T22:32:58.974Z,15.43
2023-05-11T22:35:26.537Z,15.41
2023-05-11T22:37:53.813Z,15.41
2023-05-11T22:40:21.103Z,15.41
2023-05-11T22:42:48.321Z,15.40
2023-05-11T22:45:16.086Z,15.39
2023-05-11T22:47:43.264Z,15.37
2023-05-11T22:50:11.815Z,15.35
2023-05-11T22:52:38.970Z,15.33
2023-05-11T22:55:06.754Z,15.31
2023-05-11T22:57:33.777Z,15.29
2023-05-11T23:00:00.827Z,15.28
2023-05-11T23:02:29.503Z,15.27
2023-05-11T23:04:57.169Z,15.27
2023-05-11T23:07:24.223Z,15.29
2023-05-11T23:09:52.458Z,15.31
2023-05-11T23:12:19.639Z,15.34
2023-05-11T23:14:46.794Z,15.36
2023-05-11T23:17:13.829Z,15.40
2023-05-11T23:19:41.633Z,15.43
2023-05-11T23:22:08.652Z,15.47
2023-05-11T23:24:35.705Z,15.50
2023-05-11T23:27:03.077Z,15.54
2023-05-11T23:29:30.221Z,15.56
2023-05-11T23:31:57.468Z,15.57
2023-05-11T23:34:24.599Z,15.59
2023-05-11T23:36:51.699Z,15.61
2023-05-11T23:39:19.222Z,15.63
2023-05-11T23:41:46.056Z,15.65
2023-05-11T23:44:12.997Z,15.65
2023-05-11T23:46:40.076Z,15.67
2023-05-11T23:49:07.293Z,15.68
2023-05-11T23:51:34.448Z,15.69
2023-05-11T23:54:01.705Z,15.68
2023-05-11T23:56:28.945Z,15.69
2023-05-11T23:58:55.987Z,15.69
